Time;durP1;ratioP1;P1;durP2;ratioP2;P2;SDS_P1;SDS_P2;PMS_P1;PMS_P2;Temp;Humidity;BMP_temperature;BMP_pressure;BME280_temperature;BME280_humidity;BME280_pressure;Samples;Min_cycle;Max_cycle;Signal;HPM_P1;HPM_P2
2023/09/26 00:01:37;;;;;;;8.57;8.03;;;16.70;28.40;;;;;;4990199;28;20210;-78
2023/09/26 00:04:03;;;;;;;10.20;9.63;;;16.70;28.40;;;;;;4992029;28;20253;-78
2023/09/26 00:06:29;;;;;;;9.60;9.10;;;16.70;28.40;;;;;;4991492;28;20174;-78
2023/09/26 00:08:55;;;;;;;9.00;8.50;;;16.70;28.40;;;;;;4991193;28;20178;-78
2023/09/26 00:11:21;;;;;;;8.87;8.20;;;16.70;28.30;;;;;;4991313;28;20796;-77
2023/09/26 00:13:48;;;;;;;8.87;8.47;;;16.70;28.40;;;;;;4990662;28;20178;-78
2023/09/26 00:16:14;;;;;;;9.07;8.47;;;16.60;28.40;;;;;;4991599;28;20419;-78
2023/09/26 00:18:42;;;;;;;9.77;9.27;;;16.60;28.40;;;;;;4990693;28;20925;-79
2023/09/26 00:21:08;;;;;;;9.70;9.13;;;16.70;28.40;;;;;;4989763;28;20214;-77
2023/09/26 00:23:35;;;;;;;9.30;8.70;;;16.70;28.40;;;;;;4991472;28;20456;-78
2023/09/26 00:26:01;;;;;;;9.67;8.97;;;16.70;28.30;;;;;;4991214;28;20802;-78
2023/09/26 00:28:27;;;;;;;8.87;8.40;;;16.70;28.30;;;;;;4991308;28;20452;-78
2023/09/26 00:30:56;;;;;;;9.57;9.07;;;16.70;28.40;;;;;;4991043;28;20487;-76
2023/09/26 00:33:21;;;;;;;9.90;8.93;;;16.60;28.50;;;;;;4990609;28;20784;-78
2023/09/26 00:35:47;;;;;;;9.33;8.80;;;16.50;28.50;;;;;;4989546;28;20414;-77
2023/09/26 00:38:13;;;;;;;10.17;9.67;;;16.50;28.60;;;;;;4989832;28;20932;-78
2023/09/26 00:40:40;;;;;;;9.30;8.90;;;16.50;28.70;;;;;;4990971;28;20256;-77
2023/09/26 00:43:06;;;;;;;9.40;8.90;;;16.60;28.70;;;;;;4990854;28;20174;-79
2023/09/26 00:45:32;;;;;;;9.80;9.10;;;16.50;28.70;;;;;;4990273;28;20413;-77
2023/09/26 00:47:59;;;;;;;9.43;8.83;;;16.50;28.80;;;;;;4991332;28;20256;-78
2023/09/26 00:50:25;;;;;;;9.57;8.97;;;16.50;28.90;;;;;;4991629;28;20433;-77
2023/09/26 00:52:51;;;;;;;9.00;8.50;;;16.50;28.90;;;;;;4989937;28;20417;-79
2023/09/26 00:55:21;;;;;;;8.27;7.87;;;16.50;29.00;;;;;;4991640;28;20900;-78
2023/09/26 00:57:47;;;;;;;9.30;8.77;;;16.50;29.60;;;;;;4989918;28;20508;-77
2023/09/26 01:00:15;;;;;;;9.60;9.00;;;16.40;29.10;;;;;;4990513;28;20474;-78
2023/09/26 01:02:41;;;;;;;9.80;8.93;;;16.40;29.20;;;;;;4989181;28;20296;-76
2023/09/26 01:05:08;;;;;;;8.50;8.10;;;16.30;28.90;;;;;;4991011;28;20531;-76
2023/09/26 01:07:34;;;;;;;9.30;8.77;;;16.00;29.90;;;;;;4989707;28;20174;-77
2023/09/26 01:10:01;;;;;;;9.40;8.83;;;15.80;30.50;;;;;;4990429;28;20434;-77
2023/09/26 01:12:28;;;;;;;10.60;9.80;;;15.60;31.50;;;;;;4990203;28;20415;-78
2023/09/26 01:14:54;;;;;;;9.13;8.63;;;15.60;32.10;;;;;;4991267;28;20467;-77
2023/09/26 01:17:20;;;;;;;9.47;8.97;;;15.70;31.60;;;;;;4989771;28;20416;-78
2023/09/26 01:19:45;;;;;;;9.40;8.90;;;15.80;31.20;;;;;;4991123;28;20540;-78
2023/09/26 01:22:15;;;;;;;8.80;8.30;;;15.90;30.70;;;;;;4988976;28;20213;-78
2023/09/26 01:24:41;;;;;;;8.63;8.13;;;16.00;30.30;;;;;;4991292;28;20249;-78
2023/09/26 01:27:06;;;;;;;9.23;8.73;;;16.00;29.90;;;;;;5015727;22;20546;-79
2023/09/26 01:29:32;;;;;;;10.47;9.77;;;16.10;29.90;;;;;;4990272;28;20190;-79
2023/09/26 01:31:57;;;;;;;9.37;8.87;;;16.10;29.80;;;;;;4995974;28;20654;-79
2023/09/26 01:34:23;;;;;;;10.10;9.47;;;16.10;29.80;;;;;;4997679;28;20200;-78
2023/09/26 01:36:48;;;;;;;9.03;8.63;;;16.20;29.90;;;;;;5012427;28;20685;-79
2023/09/26 01:39:14;;;;;;;9.90;9.30;;;16.20;29.60;;;;;;4997371;28;20190;-79
2023/09/26 01:41:41;;;;;;;9.17;8.67;;;16.20;29.50;;;;;;4995875;28;20213;-79
2023/09/26 01:44:06;;;;;;;10.10;9.53;;;16.20;29.40;;;;;;4997578;28;20440;-79
2023/09/26 01:46:32;;;;;;;10.10;9.60;;;16.30;29.30;;;;;;4995514;28;20824;-79
2023/09/26 01:48:57;;;;;;;10.00;9.50;;;16.20;29.20;;;;;;4997119;28;20567;-79
2023/09/26 01:51:23;;;;;;;10.20;9.70;;;16.20;29.10;;;;;;4997146;28;20190;-79
2023/09/26 01:53:49;;;;;;;10.53;9.93;;;16.20;29.10;;;;;;4998736;28;20197;-79
2023/09/26 01:56:15;;;;;;;10.23;9.73;;;16.30;29.30;;;;;;5000501;28;20686;-78
2023/09/26 01:58:41;;;;;;;10.37;9.73;;;16.20;29.10;;;;;;4999663;28;20649;-78
2023/09/26 02:01:06;;;;;;;10.00;9.57;;;16.20;29.20;;;;;;4998173;28;20515;-79
2023/09/26 02:03:33;;;;;;;9.70;9.10;;;16.20;29.20;;;;;;4995491;28;20185;-79
2023/09/26 02:05:58;;;;;;;9.60;9.00;;;16.20;29.20;;;;;;4996181;28;20209;-78
2023/09/26 02:08:25;;;;;;;10.10;9.57;;;16.20;29.30;;;;;;4996962;28;20422;-78
2023/09/26 02:10:50;;;;;;;10.03;9.43;;;16.20;29.30;;;;;;4997318;28;20213;-79
2023/09/26 02:13:16;;;;;;;10.43;9.83;;;16.20;29.40;;;;;;4995387;28;20437;-78
2023/09/26 02:15:41;;;;;;;9.80;9.30;;;16.20;29.40;;;;;;4996152;28;20201;-79
2023/09/26 02:18:07;;;;;;;10.53;9.93;;;16.10;29.40;;;;;;4996462;28;20289;-78
2023/09/26 02:20:33;;;;;;;10.70;9.93;;;16.10;30.00;;;;;;4998460;28;20297;-79
2023/09/26 02:22:59;;;;;;;10.17;9.67;;;16.10;29.40;;;;;;4996980;28;20479;-78
2023/09/26 02:25:25;;;;;;;9.90;9.30;;;16.10;29.40;;;;;;4996019;28;20646;-81
2023/09/26 02:27:51;;;;;;;10.07;9.60;;;16.10;29.40;;;;;;4997128;28;20186;-78
2023/09/26 02:30:22;;;;;;;11.03;10.43;;;16.10;29.40;;;;;;4996836;28;20432;-78
2023/09/26 02:32:48;;;;;;;10.60;10.03;;;16.10;29.50;;;;;;4996297;28;20192;-79
2023/09/26 02:35:16;;;;;;;9.70;9.20;;;16.10;29.40;;;;;;4979399;28;20552;-79
2023/09/26 02:37:43;;;;;;;10.67;9.97;;;16.10;29.40;;;;;;4996453;28;20460;-79
2023/09/26 02:40:09;;;;;;;9.87;9.47;;;16.10;29.40;;;;;;4996158;28;20437;-78
2023/09/26 02:42:39;;;;;;;9.50;8.90;;;16.10;29.30;;;;;;4995140;28;20468;-79
2023/09/26 02:45:05;;;;;;;10.00;9.50;;;16.00;29.30;;;;;;4995443;28;20443;-79
2023/09/26 02:47:31;;;;;;;10.00;9.50;;;16.00;29.70;;;;;;4996317;28;20555;-77
2023/09/26 02:49:56;;;;;;;10.20;9.60;;;15.90;29.60;;;;;;4996414;28;20439;-78
2023/09/26 02:52:22;;;;;;;9.83;9.27;;;15.90;29.70;;;;;;4995942;28;20186;-79
2023/09/26 02:54:48;;;;;;;9.90;9.30;;;15.90;29.70;;;;;;4995325;28;20186;-79
2023/09/26 02:57:14;;;;;;;9.67;9.17;;;15.90;29.60;;;;;;4995907;28;20504;-79
2023/09/26 02:59:40;;;;;;;9.83;9.33;;;16.00;29.50;;;;;;4996239;28;20209;-79
2023/09/26 03:02:06;;;;;;;9.47;8.97;;;15.90;29.10;;;;;;4996196;28;20964;-79
2023/09/26 03:04:31;;;;;;;9.70;9.13;;;15.90;29.30;;;;;;4996123;28;20200;-78
2023/09/26 03:06:57;;;;;;;9.70;9.20;;;15.90;29.20;;;;;;4996110;28;20816;-78
2023/09/26 03:09:22;;;;;;;9.20;8.70;;;15.90;29.00;;;;;;4995747;28;20178;-79
2023/09/26 03:11:48;;;;;;;9.23;8.63;;;15.90;29.10;;;;;;4996060;28;20185;-79
2023/09/26 03:14:13;;;;;;;9.40;9.00;;;15.80;29.10;;;;;;4997750;28;20201;-78
2023/09/26 03:16:39;;;;;;;10.27;9.57;;;15.80;29.20;;;;;;4997348;28;20248;-79
2023/09/26 03:19:06;;;;;;;8.80;8.23;;;15.80;29.00;;;;;;4996664;28;20186;-79
2023/09/26 03:21:31;;;;;;;10.27;9.67;;;15.80;29.10;;;;;;4997182;28;20264;-79
2023/09/26 03:23:57;;;;;;;9.73;9.30;;;15.80;29.20;;;;;;4994051;28;20440;-79
2023/09/26 03:26:22;;;;;;;9.37;8.87;;;15.80;29.00;;;;;;4995354;28;20214;-78
2023/09/26 03:28:48;;;;;;;8.73;8.33;;;15.80;29.10;;;;;;4994193;28;20537;-78
2023/09/26 03:31:13;;;;;;;10.13;9.63;;;15.70;29.00;;;;;;4996141;28;20185;-77
2023/09/26 03:33:39;;;;;;;9.50;9.07;;;15.60;29.60;;;;;;4995082;28;20661;-79
2023/09/26 03:36:05;;;;;;;9.27;8.80;;;15.60;29.70;;;;;;4994448;28;20209;-79
2023/09/26 03:38:31;;;;;;;10.37;9.80;;;15.70;29.60;;;;;;4995026;28;20232;-78
2023/09/26 03:41:01;;;;;;;10.20;9.60;;;15.70;29.50;;;;;;4996938;28;20200;-77
2023/09/26 03:43:27;;;;;;;10.57;9.97;;;15.80;29.40;;;;;;4998781;28;20994;-77
2023/09/26 03:46:13;;;;;;;9.13;8.73;;;15.70;29.30;;;;;;4999365;28;20445;-77
2023/09/26 03:48:38;;;;;;;10.40;9.80;;;15.80;29.30;;;;;;4993503;28;20468;-77
2023/09/26 03:51:08;;;;;;;9.63;9.13;;;15.70;29.30;;;;;;5000486;28;20461;-77
2023/09/26 03:53:34;;;;;;;9.00;8.60;;;15.80;29.40;;;;;;4997448;28;20190;-76
2023/09/26 03:56:00;;;;;;;10.07;9.47;;;15.70;29.10;;;;;;4996849;28;20461;-78
2023/09/26 03:58:25;;;;;;;9.53;9.00;;;15.70;29.40;;;;;;4993793;28;20232;-79
2023/09/26 04:00:51;;;;;;;10.03;9.43;;;15.60;29.50;;;;;;4993461;28;20202;-78
2023/09/26 04:03:16;;;;;;;10.10;9.50;;;15.60;29.40;;;;;;4995267;28;20173;-79
2023/09/26 04:05:46;;;;;;;10.20;9.70;;;15.70;29.40;;;;;;4996273;28;20202;-80
2023/09/26 04:08:14;;;;;;;11.37;10.80;;;15.70;29.30;;;;;;5000055;28;20269;-79
2023/09/26 04:10:40;;;;;;;11.13;10.63;;;15.70;29.20;;;;;;5005767;28;20429;-79
2023/09/26 04:13:06;;;;;;;10.77;10.17;;;15.70;29.20;;;;;;5001665;28;20428;-79
2023/09/26 04:15:31;;;;;;;11.87;11.17;;;15.60;29.30;;;;;;4999583;28;20208;-78
2023/09/26 04:17:57;;;;;;;11.30;10.70;;;15.60;29.40;;;;;;4998758;28;20186;-78
2023/09/26 04:20:23;;;;;;;14.43;10.73;;;15.60;29.30;;;;;;5001141;28;20196;-79
2023/09/26 04:22:48;;;;;;;12.20;11.50;;;15.60;29.10;;;;;;4999441;28;20241;-79
2023/09/26 04:25:14;;;;;;;12.13;11.53;;;15.70;29.00;;;;;;4998061;28;20425;-79
2023/09/26 04:27:40;;;;;;;10.60;10.10;;;15.60;29.00;;;;;;4997208;28;20246;-79
2023/09/26 04:30:08;;;;;;;12.07;10.93;;;15.50;29.10;;;;;;4999615;28;20249;-78
2023/09/26 04:32:34;;;;;;;11.03;10.53;;;15.50;29.10;;;;;;5005436;28;20264;-77
2023/09/26 04:34:59;;;;;;;10.63;9.93;;;15.50;29.10;;;;;;5007078;28;20444;-78
2023/09/26 04:37:25;;;;;;;11.47;10.87;;;15.50;29.10;;;;;;5005168;28;20206;-78
2023/09/26 04:39:50;;;;;;;10.27;9.67;;;15.50;29.30;;;;;;5005228;28;20186;-78
2023/09/26 04:42:16;;;;;;;11.10;10.30;;;15.50;29.40;;;;;;5005868;28;20210;-78
2023/09/26 04:44:41;;;;;;;11.23;10.63;;;15.40;29.40;;;;;;5005660;28;20174;-78
2023/09/26 04:47:07;;;;;;;11.83;10.97;;;15.40;29.40;;;;;;5007227;28;20201;-79
2023/09/26 04:49:34;;;;;;;10.93;10.33;;;15.40;29.30;;;;;;5004251;28;20182;-79
2023/09/26 04:52:01;;;;;;;11.30;10.57;;;15.40;29.10;;;;;;5002466;28;20194;-79
2023/09/26 04:54:26;;;;;;;11.20;10.60;;;15.40;29.40;;;;;;5003137;28;20430;-79
2023/09/26 04:56:52;;;;;;;11.20;10.70;;;15.40;29.40;;;;;;5001753;28;20469;-79
2023/09/26 04:59:18;;;;;;;10.90;10.40;;;15.40;29.60;;;;;;4999439;28;20213;-79
2023/09/26 05:01:45;;;;;;;11.10;10.60;;;15.40;29.50;;;;;;4998093;28;20237;-79
2023/09/26 05:04:11;;;;;;;9.97;9.57;;;15.40;29.40;;;;;;4998587;28;20182;-79
2023/09/26 05:06:36;;;;;;;10.47;10.07;;;15.40;29.40;;;;;;5000474;28;20452;-79
2023/09/26 05:09:02;;;;;;;10.77;10.17;;;15.40;29.10;;;;;;5000376;28;20213;-79
2023/09/26 05:11:28;;;;;;;11.33;10.73;;;15.40;29.20;;;;;;5000131;28;20217;-80
2023/09/26 05:13:54;;;;;;;11.57;10.77;;;15.40;29.20;;;;;;4999656;28;20245;-79
2023/09/26 05:16:19;;;;;;;11.93;11.33;;;15.40;29.20;;;;;;4998632;28;20472;-79
2023/09/26 05:18:46;;;;;;;11.90;11.40;;;15.30;29.10;;;;;;4998959;28;20637;-79
2023/09/26 05:21:11;;;;;;;11.37;10.87;;;15.30;29.40;;;;;;4999293;28;20209;-80
2023/09/26 05:23:37;;;;;;;11.87;11.27;;;15.40;29.30;;;;;;4998513;28;20422;-79
2023/09/26 05:26:11;;;;;;;11.83;11.23;;;15.40;29.30;;;;;;5000285;28;20215;-80
2023/09/26 05:28:37;;;;;;;12.17;11.33;;;15.40;29.40;;;;;;4992380;28;20682;-79
2023/09/26 05:31:03;;;;;;;12.23;11.43;;;15.40;29.50;;;;;;4999602;28;20436;-79
2023/09/26 05:33:28;;;;;;;12.50;11.70;;;15.40;29.50;;;;;;4997356;28;20429;-78
2023/09/26 05:35:55;;;;;;;12.80;12.20;;;15.40;29.40;;;;;;4999691;28;20284;-80
2023/09/26 05:38:21;;;;;;;13.00;12.20;;;15.30;29.60;;;;;;5000073;28;20864;-79
2023/09/26 05:40:47;;;;;;;13.37;12.57;;;15.30;29.50;;;;;;5001972;28;20500;-79
2023/09/26 05:43:13;;;;;;;11.33;10.83;;;15.30;29.40;;;;;;4998821;28;20933;-80
2023/09/26 05:45:38;;;;;;;12.57;11.97;;;15.30;29.60;;;;;;4999166;28;20494;-79
2023/09/26 05:48:04;;;;;;;12.20;11.17;;;15.30;29.40;;;;;;4997664;28;20174;-80
2023/09/26 05:50:31;;;;;;;11.73;10.93;;;15.30;29.40;;;;;;4996769;28;20182;-79
2023/09/26 05:52:56;;;;;;;12.80;12.10;;;15.30;29.40;;;;;;4998832;28;21075;-79
2023/09/26 05:55:22;;;;;;;12.50;11.70;;;15.40;29.30;;;;;;4998039;28;20456;-80
2023/09/26 05:57:48;;;;;;;12.90;12.30;;;15.30;29.40;;;;;;4998400;28;20186;-79
2023/09/26 06:00:14;;;;;;;12.87;12.17;;;15.40;29.50;;;;;;4997642;28;20698;-79
2023/09/26 06:02:40;;;;;;;12.50;11.90;;;15.40;29.40;;;;;;4996491;28;20213;-79
2023/09/26 06:05:06;;;;;;;12.87;12.17;;;15.50;29.60;;;;;;4998381;28;20425;-80
2023/09/26 06:07:32;;;;;;;12.83;12.03;;;15.40;29.50;;;;;;4998733;28;20447;-80
2023/09/26 06:09:58;;;;;;;13.80;12.90;;;15.50;29.50;;;;;;4998184;28;20514;-80
2023/09/26 06:12:24;;;;;;;13.10;12.30;;;15.50;29.50;;;;;;4997366;28;20201;-77
2023/09/26 06:14:50;;;;;;;13.73;12.93;;;15.50;29.50;;;;;;4996547;28;20417;-80
2023/09/26 06:17:15;;;;;;;13.47;12.60;;;15.60;29.60;;;;;;4995378;28;20575;-80
2023/09/26 06:19:46;;;;;;;14.07;12.97;;;15.50;29.40;;;;;;4997332;28;20193;-79
2023/09/26 06:22:12;;;;;;;12.80;11.90;;;15.50;29.40;;;;;;5000733;28;20202;-77
2023/09/26 06:24:38;;;;;;;13.17;12.37;;;15.60;29.30;;;;;;5003316;28;20450;-79
2023/09/26 06:27:04;;;;;;;12.33;11.73;;;15.60;29.20;;;;;;4998117;28;20971;-79
2023/09/26 06:29:29;;;;;;;13.50;12.50;;;15.50;28.70;;;;;;4996748;28;20182;-80
2023/09/26 06:31:55;;;;;;;12.20;11.60;;;15.50;28.80;;;;;;4995181;28;20182;-79
2023/09/26 06:34:20;;;;;;;12.40;11.70;;;15.40;29.20;;;;;;4994351;28;20194;-79
2023/09/26 06:36:49;;;;;;;12.30;11.50;;;15.50;29.30;;;;;;4993522;28;20220;-79
2023/09/26 06:39:15;;;;;;;12.10;11.50;;;15.50;29.20;;;;;;4994573;28;20188;-80
2023/09/26 06:41:40;;;;;;;11.80;11.03;;;15.60;29.00;;;;;;4995365;28;20469;-79
2023/09/26 06:44:06;;;;;;;12.37;11.57;;;15.60;29.00;;;;;;4993483;28;20186;-78
2023/09/26 06:46:32;;;;;;;10.80;10.20;;;15.70;28.90;;;;;;4994619;28;20206;-79
2023/09/26 06:48:57;;;;;;;12.73;12.03;;;15.70;29.00;;;;;;4994748;28;20270;-79
2023/09/26 06:51:24;;;;;;;11.40;10.70;;;15.70;28.50;;;;;;4995160;28;20194;-79
2023/09/26 06:53:49;;;;;;;11.90;11.23;;;15.60;28.80;;;;;;4993466;28;20185;-80
2023/09/26 06:56:15;;;;;;;12.27;11.57;;;15.60;29.00;;;;;;4994424;28;20461;-79
2023/09/26 06:58:40;;;;;;;12.40;11.70;;;15.70;29.40;;;;;;4993669;28;20182;-79
2023/09/26 07:01:17;;;;;;;12.83;12.07;;;15.70;29.10;;;;;;4994493;28;20732;-79
2023/09/26 07:03:43;;;;;;;13.17;12.30;;;15.80;28.70;;;;;;4986875;28;20605;-78
2023/09/26 07:06:10;;;;;;;12.97;12.13;;;15.80;28.50;;;;;;4994907;28;20531;-78
2023/09/26 07:08:37;;;;;;;14.20;12.93;;;15.90;28.70;;;;;;4993537;28;20174;-79
2023/09/26 07:11:03;;;;;;;13.33;12.53;;;15.90;28.50;;;;;;4994296;28;20413;-79
2023/09/26 07:13:29;;;;;;;13.37;12.50;;;16.00;28.60;;;;;;4995287;28;20770;-78
2023/09/26 07:16:03;;;;;;;13.70;12.90;;;16.00;28.80;;;;;;4994024;28;20448;-78
2023/09/26 07:18:32;;;;;;;15.67;14.47;;;16.00;28.70;;;;;;4995524;28;20182;-79
2023/09/26 07:21:04;;;;;;;13.97;13.00;;;16.10;28.70;;;;;;4995257;28;20461;-79
2023/09/26 07:23:34;;;;;;;16.17;15.17;;;16.10;28.60;;;;;;4996206;28;20429;-80
2023/09/26 07:26:12;;;;;;;16.87;15.87;;;15.90;28.40;;;;;;4993960;28;20479;-79
2023/09/26 07:28:38;;;;;;;14.73;13.93;;;15.70;28.90;;;;;;4995596;28;20435;-79
2023/09/26 07:33:34;;;;;;;15.37;14.37;;;15.70;29.30;;;;;;4980619;28;20461;-77
2023/09/26 07:36:00;;;;;;;13.60;12.87;;;15.70;29.60;;;;;;4973374;28;20437;-77
2023/09/26 07:38:25;;;;;;;16.10;14.83;;;15.80;29.60;;;;;;4986944;28;20437;-78
2023/09/26 07:40:51;;;;;;;14.90;13.80;;;15.80;29.20;;;;;;4972490;28;20178;-78
2023/09/26 07:43:17;;;;;;;15.47;14.47;;;15.90;29.30;;;;;;4986679;28;20206;-78
2023/09/26 07:45:42;;;;;;;14.93;14.03;;;16.00;29.10;;;;;;4987198;28;20273;-79
2023/09/26 07:48:08;;;;;;;15.13;14.33;;;16.00;28.80;;;;;;4972085;28;20191;-78
2023/09/26 07:50:34;;;;;;;23.13;15.77;;;16.10;28.50;;;;;;4971630;28;20183;-79
2023/09/26 07:53:02;;;;;;;15.70;14.27;;;16.00;28.80;;;;;;4986864;28;20449;-78
2023/09/26 07:55:28;;;;;;;14.93;13.83;;;16.00;28.60;;;;;;4972448;28;20213;-78
2023/09/26 07:57:54;;;;;;;15.40;14.50;;;16.10;28.30;;;;;;4971684;28;20426;-78
2023/09/26 08:00:20;;;;;;;13.90;13.10;;;16.00;28.60;;;;;;4972180;28;20422;-78
2023/09/26 08:02:45;;;;;;;15.97;14.80;;;16.00;28.80;;;;;;4972408;28;20206;-76
2023/09/26 08:05:11;;;;;;;15.10;14.20;;;16.00;28.90;;;;;;4970690;28;20274;-77
2023/09/26 08:07:38;;;;;;;16.17;14.87;;;16.00;29.20;;;;;;4971583;28;20570;-77
2023/09/26 08:10:04;;;;;;;14.90;14.00;;;16.10;29.00;;;;;;4989346;28;20194;-76
2023/09/26 08:12:31;;;;;;;14.87;13.87;;;16.20;29.00;;;;;;4974282;28;20461;-78
2023/09/26 08:14:58;;;;;;;13.23;12.43;;;16.20;28.70;;;;;;4974413;28;20446;-77
2023/09/26 08:17:24;;;;;;;14.63;13.53;;;16.40;28.70;;;;;;4974338;28;20496;-77
2023/09/26 08:19:50;;;;;;;14.17;13.17;;;16.50;28.60;;;;;;4973150;28;20453;-77
2023/09/26 08:22:16;;;;;;;14.17;13.27;;;16.50;28.20;;;;;;4974050;28;20470;-78
2023/09/26 08:24:41;;;;;;;13.40;12.50;;;16.50;28.40;;;;;;4973748;28;20186;-78
2023/09/26 08:27:10;;;;;;;14.93;13.93;;;16.60;27.90;;;;;;4972926;28;20434;-77
2023/09/26 08:29:36;;;;;;;14.93;13.70;;;16.60;27.70;;;;;;4973813;28;20329;-78
2023/09/26 08:32:06;;;;;;;13.77;12.97;;;16.60;27.90;;;;;;4975014;28;20506;-77
2023/09/26 08:34:32;;;;;;;15.30;14.17;;;16.70;28.10;;;;;;4988623;28;20577;-77
2023/09/26 08:36:58;;;;;;;13.37;12.30;;;16.70;28.40;;;;;;4972603;28;21079;-77
2023/09/26 08:39:23;;;;;;;13.90;12.90;;;16.80;28.20;;;;;;4974933;28;20187;-78
2023/09/26 08:41:50;;;;;;;13.20;12.50;;;16.90;27.90;;;;;;4976009;28;20639;-78
2023/09/26 08:44:16;;;;;;;13.37;12.37;;;16.90;27.90;;;;;;4976135;28;20190;-79
2023/09/26 08:46:45;;;;;;;13.53;12.73;;;17.00;27.90;;;;;;4975773;28;20485;-78
2023/09/26 08:49:10;;;;;;;13.30;12.47;;;17.10;28.00;;;;;;4975878;28;20198;-78
2023/09/26 08:51:36;;;;;;;13.80;12.90;;;17.30;27.40;;;;;;4975543;28;20470;-78
2023/09/26 08:54:03;;;;;;;13.23;12.23;;;17.50;27.00;;;;;;4977637;28;20190;-77
2023/09/26 08:56:31;;;;;;;13.00;12.30;;;17.80;26.40;;;;;;4975901;28;20429;-79
2023/09/26 08:59:02;;;;;;;14.60;13.57;;;18.20;26.10;;;;;;4976065;28;20434;-79
2023/09/26 09:01:28;;;;;;;12.73;11.97;;;18.40;25.00;;;;;;4975371;28;20476;-78
2023/09/26 09:03:54;;;;;;;12.57;11.87;;;18.60;24.40;;;;;;4975609;28;20449;-79
2023/09/26 09:06:20;;;;;;;12.30;11.23;;;18.90;24.60;;;;;;4990015;28;20430;-79
2023/09/26 09:08:45;;;;;;;13.17;12.20;;;19.00;24.10;;;;;;4975603;28;20182;-77
2023/09/26 09:11:12;;;;;;;12.60;12.00;;;19.20;23.70;;;;;;4975748;28;20175;-77
2023/09/26 09:13:39;;;;;;;12.77;12.17;;;19.40;23.20;;;;;;4975975;28;20191;-78
2023/09/26 09:16:08;;;;;;;13.13;12.10;;;19.50;22.70;;;;;;4976946;28;20429;-77
2023/09/26 09:18:34;;;;;;;12.47;11.67;;;19.70;22.70;;;;;;4977997;28;20469;-77
2023/09/26 09:21:00;;;;;;;12.00;11.30;;;19.90;21.60;;;;;;4978088;28;20417;-78
2023/09/26 09:23:26;;;;;;;12.63;11.70;;;20.00;21.70;;;;;;4976291;28;20433;-77
2023/09/26 09:25:51;;;;;;;12.63;11.83;;;20.10;21.30;;;;;;4978990;28;20183;-76
2023/09/26 09:28:21;;;;;;;12.97;12.27;;;20.00;21.70;;;;;;4978006;28;20217;-77
2023/09/26 09:30:49;;;;;;;12.33;11.63;;;20.00;21.70;;;;;;4980986;28;20187;-78
2023/09/26 09:33:16;;;;;;;13.20;12.40;;;20.10;21.30;;;;;;4982008;28;20457;-77
2023/09/26 09:35:41;;;;;;;13.73;12.93;;;20.20;21.30;;;;;;4982025;28;20430;-78
2023/09/26 09:38:08;;;;;;;13.40;12.50;;;20.20;21.10;;;;;;4996622;28;20503;-78
2023/09/26 09:40:34;;;;;;;13.70;12.90;;;20.30;21.40;;;;;;4981021;28;20442;-77
2023/09/26 09:43:00;;;;;;;13.73;12.67;;;20.20;21.30;;;;;;4980066;28;20473;-77
2023/09/26 09:45:32;;;;;;;11.23;10.63;;;20.30;21.30;;;;;;4978856;28;21012;-77
2023/09/26 09:48:01;;;;;;;12.60;11.80;;;20.40;21.30;;;;;;4979529;28;20662;-76
2023/09/26 09:50:28;;;;;;;13.90;13.10;;;20.60;21.40;;;;;;4992778;28;20466;-78
2023/09/26 09:53:00;;;;;;;12.67;11.97;;;20.60;20.50;;;;;;4979523;28;20485;-77
2023/09/26 09:55:35;;;;;;;13.23;12.40;;;20.50;20.90;;;;;;4995229;28;20458;-78
2023/09/26 09:58:06;;;;;;;13.17;12.47;;;20.50;21.50;;;;;;4979941;28;20917;-78
2023/09/26 10:00:35;;;;;;;12.27;11.47;;;20.50;20.70;;;;;;4979606;28;20492;-78
2023/09/26 10:03:04;;;;;;;14.50;13.40;;;20.60;20.90;;;;;;4976945;28;20473;-77
2023/09/26 10:05:30;;;;;;;13.57;12.77;;;20.60;20.80;;;;;;4989141;28;20493;-78
2023/09/26 10:08:06;;;;;;;12.50;11.87;;;20.70;20.50;;;;;;4982816;28;20426;-78
2023/09/26 10:10:33;;;;;;;12.83;12.13;;;20.80;20.70;;;;;;4983182;28;20952;-78
2023/09/26 10:12:59;;;;;;;12.27;11.67;;;20.80;20.20;;;;;;4984053;28;20708;-78
2023/09/26 10:15:25;;;;;;;11.73;11.13;;;20.90;21.20;;;;;;4974313;28;20444;-78
2023/09/26 10:17:52;;;;;;;12.90;11.70;;;21.00;20.40;;;;;;4985904;28;20447;-78
2023/09/26 10:20:17;;;;;;;12.40;11.70;;;21.00;19.70;;;;;;4970482;28;20187;-78
2023/09/26 10:22:44;;;;;;;11.80;11.10;;;21.10;19.70;;;;;;4974015;28;21000;-79
2023/09/26 10:25:22;;;;;;;12.03;11.23;;;21.10;19.50;;;;;;4974398;28;20187;-78
2023/09/26 10:27:47;;;;;;;11.40;10.80;;;21.00;19.50;;;;;;4974826;28;20430;-78
2023/09/26 10:30:14;;;;;;;12.13;11.33;;;21.20;19.70;;;;;;4974336;28;21002;-78
2023/09/26 10:32:41;;;;;;;12.40;11.73;;;21.20;19.60;;;;;;4973787;28;20247;-78
2023/09/26 10:35:13;;;;;;;12.83;12.00;;;21.30;19.70;;;;;;4986153;28;20443;-78
2023/09/26 10:37:48;;;;;;;14.83;13.73;;;21.30;19.20;;;;;;4973496;28;20500;-77
2023/09/26 10:40:17;;;;;;;12.63;11.87;;;21.40;19.30;;;;;;4974593;28;20432;-78
2023/09/26 10:42:48;;;;;;;13.50;12.80;;;21.50;19.70;;;;;;4973719;28;20490;-77
2023/09/26 10:45:14;;;;;;;12.00;11.30;;;21.60;18.70;;;;;;4974294;28;20434;-77
2023/09/26 10:47:40;;;;;;;11.90;11.20;;;21.50;18.50;;;;;;4974133;28;20821;-77
2023/09/26 10:50:13;;;;;;;12.30;11.40;;;21.50;19.20;;;;;;4988908;28;20186;-78
2023/09/26 10:52:46;;;;;;;11.57;10.80;;;21.60;18.50;;;;;;4973945;28;20520;-78
2023/09/26 10:55:16;;;;;;;11.27;10.43;;;21.60;18.50;;;;;;4974219;28;20848;-78
2023/09/26 10:57:45;;;;;;;10.60;10.20;;;21.60;18.30;;;;;;4973825;28;20457;-79
2023/09/26 11:00:12;;;;;;;10.70;10.10;;;21.70;18.70;;;;;;4974071;28;20436;-78
2023/09/26 11:02:41;;;;;;;11.70;11.17;;;21.70;18.40;;;;;;4973521;28;20461;-78
2023/09/26 11:05:13;;;;;;;10.40;10.00;;;21.70;18.20;;;;;;4974417;28;20449;-78
2023/09/26 11:07:40;;;;;;;11.87;11.27;;;21.70;18.60;;;;;;4974341;28;20513;-77
2023/09/26 11:10:14;;;;;;;11.47;10.87;;;21.60;17.80;;;;;;4974161;28;20426;-77
2023/09/26 11:12:40;;;;;;;11.70;10.90;;;21.60;17.30;;;;;;4974164;28;20477;-77
2023/09/26 11:15:07;;;;;;;11.30;10.37;;;21.60;18.00;;;;;;4974310;28;20465;-77
2023/09/26 11:17:34;;;;;;;9.83;9.33;;;21.60;17.20;;;;;;4974126;28;20606;-77
2023/09/26 11:19:59;;;;;;;10.90;10.30;;;21.70;17.20;;;;;;4972807;28;20988;-77
2023/09/26 11:22:26;;;;;;;10.00;9.50;;;21.70;17.70;;;;;;4973831;28;20469;-78
2023/09/26 11:25:05;;;;;;;10.00;9.60;;;21.60;17.70;;;;;;4974222;28;20210;-77
2023/09/26 11:27:31;;;;;;;10.80;10.20;;;21.70;17.20;;;;;;4974284;28;20422;-78
2023/09/26 11:30:01;;;;;;;10.07;9.47;;;21.80;18.20;;;;;;4985622;28;20485;-77
2023/09/26 11:32:27;;;;;;;9.47;8.90;;;21.80;17.30;;;;;;4970511;28;20651;-78
2023/09/26 11:34:52;;;;;;;11.77;10.90;;;21.80;17.00;;;;;;4973906;28;20533;-78
2023/09/26 11:37:18;;;;;;;10.23;9.73;;;21.80;16.80;;;;;;4973898;28;20529;-78
2023/09/26 11:39:50;;;;;;;9.90;9.40;;;21.90;15.70;;;;;;4973959;28;20202;-78
2023/09/26 11:42:17;;;;;;;9.50;9.00;;;22.00;15.70;;;;;;4973734;28;20215;-79
2023/09/26 11:44:56;;;;;;;9.40;9.00;;;21.90;16.10;;;;;;4981005;28;20961;-79
2023/09/26 11:47:24;;;;;;;9.07;8.67;;;21.90;15.90;;;;;;4980561;28;20948;-78
2023/09/26 11:49:51;;;;;;;8.80;8.40;;;21.80;16.00;;;;;;4973314;28;20933;-77
2023/09/26 11:52:17;;;;;;;8.30;8.00;;;21.90;16.10;;;;;;4973135;28;20564;-77
2023/09/26 11:54:44;;;;;;;8.83;8.47;;;21.80;15.90;;;;;;4973153;28;20473;-77
2023/09/26 11:57:12;;;;;;;8.53;8.03;;;21.80;15.60;;;;;;4973585;28;20438;-76
2023/09/26 11:59:38;;;;;;;8.20;7.90;;;21.80;15.70;;;;;;4971717;28;20442;-77
2023/09/26 12:02:04;;;;;;;8.93;8.40;;;21.80;15.30;;;;;;4973080;28;20472;-76
2023/09/26 12:04:33;;;;;;;8.77;8.30;;;21.90;14.90;;;;;;4972749;28;20430;-78
2023/09/26 12:06:59;;;;;;;9.07;8.37;;;21.90;14.60;;;;;;4973055;28;20782;-78
2023/09/26 12:09:27;;;;;;;9.23;8.33;;;21.90;15.20;;;;;;4972927;28;20430;-78
2023/09/26 12:11:53;;;;;;;8.87;8.47;;;21.90;14.40;;;;;;4973729;28;20456;-77
2023/09/26 12:14:19;;;;;;;8.67;8.37;;;21.90;15.00;;;;;;4972065;28;20430;-77
2023/09/26 12:16:49;;;;;;;9.70;9.10;;;22.00;14.50;;;;;;4973703;28;20211;-78
2023/09/26 12:19:15;;;;;;;8.70;8.20;;;22.00;14.30;;;;;;4979878;28;20203;-77
2023/09/26 12:21:41;;;;;;;8.50;8.10;;;22.10;14.30;;;;;;4986726;28;20474;-77
2023/09/26 12:24:07;;;;;;;8.80;8.40;;;22.20;14.50;;;;;;4972728;28;20182;-77
2023/09/26 12:26:32;;;;;;;8.03;7.73;;;22.20;13.70;;;;;;4972872;28;20190;-77
2023/09/26 12:28:58;;;;;;;8.13;7.83;;;22.20;14.20;;;;;;4984862;28;20248;-78
2023/09/26 12:31:24;;;;;;;8.20;7.90;;;22.20;13.70;;;;;;4953653;28;20578;-77
2023/09/26 12:33:49;;;;;;;7.70;7.30;;;22.20;13.30;;;;;;4955456;28;20191;-77